createdAt,value
2019-03-25T00:00:40.014Z,4.73
2019-03-25T00:03:09.646Z,3.80
2019-03-25T00:05:39.046Z,2.60
2019-03-25T00:08:08.466Z,2.90
2019-03-25T00:10:37.878Z,2.50
2019-03-25T00:13:07.374Z,2.50
2019-03-25T00:15:36.884Z,2.00
2019-03-25T00:18:06.668Z,1.80
2019-03-25T00:20:55.431Z,1.80
2019-03-25T00:23:24.900Z,1.93
2019-03-25T00:25:54.360Z,1.53
2019-03-25T00:28:23.842Z,1.60
2019-03-25T00:30:53.374Z,1.20
2019-03-25T00:33:23.294Z,1.47
2019-03-25T00:35:52.787Z,1.20
2019-03-25T00:38:22.186Z,1.10
2019-03-25T00:40:51.639Z,1.30
2019-03-25T00:43:21.230Z,1.27
2019-03-25T00:45:50.815Z,1.10
2019-03-25T00:48:21.741Z,1.10
2019-03-25T00:50:52.826Z,1.80
2019-03-25T00:53:22.340Z,1.60
2019-03-25T00:55:51.723Z,1.30
2019-03-25T00:58:21.129Z,1.30
2019-03-25T01:00:50.642Z,1.60
2019-03-25T01:03:20.452Z,1.13
2019-03-25T01:05:49.897Z,1.63
2019-03-25T01:08:19.438Z,2.27
2019-03-25T01:10:48.835Z,1.53
2019-03-25T01:13:18.245Z,1.47
2019-03-25T01:15:47.817Z,1.83
2019-03-25T01:18:17.544Z,1.60
2019-03-25T01:20:47.338Z,1.70
2019-03-25T01:23:16.739Z,1.60
2019-03-25T01:25:46.199Z,2.30
2019-03-25T01:28:15.588Z,1.80
2019-03-25T01:30:44.984Z,2.30
2019-03-25T01:33:14.443Z,1.93
2019-03-25T01:35:43.902Z,2.10
2019-03-25T01:38:13.806Z,2.27
2019-03-25T01:40:43.272Z,2.00
2019-03-25T01:43:12.679Z,2.03
2019-03-25T01:45:42.078Z,1.87
2019-03-25T01:48:11.470Z,2.07
2019-03-25T01:50:40.894Z,1.60
2019-03-25T01:53:10.298Z,1.83
2019-03-25T01:55:39.754Z,2.23
2019-03-25T01:58:09.134Z,2.00
2019-03-25T02:00:38.692Z,1.90
2019-03-25T02:03:08.156Z,1.60
2019-03-25T02:05:37.688Z,1.77
2019-03-25T02:08:07.224Z,2.33
2019-03-25T02:10:36.690Z,2.00
2019-03-25T02:13:06.246Z,1.80
2019-03-25T02:15:35.982Z,2.27
2019-03-25T02:18:05.408Z,2.30
2019-03-25T02:20:34.859Z,2.30
2019-03-25T02:23:04.504Z,2.47
2019-03-25T02:25:34.156Z,2.40
2019-03-25T02:28:03.517Z,2.73
2019-03-25T02:30:33.058Z,3.37
2019-03-25T02:33:02.490Z,2.97
2019-03-25T02:35:33.503Z,3.20
2019-03-25T02:38:02.879Z,3.50
2019-03-25T02:40:32.663Z,3.30
2019-03-25T02:43:02.092Z,3.07
2019-03-25T02:45:31.662Z,3.40
2019-03-25T02:48:01.032Z,3.50
2019-03-25T02:50:30.553Z,3.70
2019-03-25T02:53:01.477Z,3.87
2019-03-25T02:55:41.523Z,3.60
2019-03-25T02:58:02.015Z,2.90
2019-03-25T03:00:38.629Z,3.30
2019-03-25T03:03:09.020Z,2.80
2019-03-25T03:05:40.209Z,2.83
2019-03-25T03:08:09.743Z,3.30
2019-03-25T03:10:39.140Z,4.73
2019-03-25T03:13:08.571Z,3.47
2019-03-25T03:15:38.128Z,3.53
2019-03-25T03:18:09.158Z,3.73
2019-03-25T03:20:40.637Z,3.27
2019-03-25T03:23:10.063Z,3.07
2019-03-25T03:25:39.457Z,3.23
2019-03-25T03:28:08.919Z,3.07
2019-03-25T03:30:38.437Z,3.40
2019-03-25T03:33:07.925Z,3.10
2019-03-25T03:35:37.385Z,2.67
2019-03-25T03:38:08.431Z,3.57
2019-03-25T03:40:38.116Z,3.60
2019-03-25T03:43:07.697Z,3.53
2019-03-25T03:45:37.207Z,3.40
2019-03-25T03:48:06.742Z,3.83
2019-03-25T03:50:36.644Z,3.23
2019-03-25T03:53:06.413Z,2.37
2019-03-25T03:55:38.890Z,2.40
2019-03-25T03:58:08.516Z,2.87
2019-03-25T04:00:38.099Z,1.73
2019-03-25T04:03:07.561Z,1.70
2019-03-25T04:05:37.019Z,1.70
2019-03-25T04:08:06.471Z,1.67
2019-03-25T04:10:36.076Z,1.87
2019-03-25T04:13:06.010Z,2.17
2019-03-25T04:15:35.427Z,2.30
2019-03-25T04:18:04.984Z,2.93
2019-03-25T04:20:34.393Z,3.47
2019-03-25T04:23:03.945Z,3.93
2019-03-25T04:25:33.403Z,3.80
2019-03-25T04:28:02.780Z,3.00
2019-03-25T04:30:33.725Z,2.93
2019-03-25T04:33:03.148Z,3.90
2019-03-25T04:35:32.725Z,4.40
2019-03-25T04:38:02.237Z,4.50
2019-03-25T04:40:31.623Z,4.90
2019-03-25T04:43:01.061Z,4.27
2019-03-25T04:45:30.610Z,4.40
2019-03-25T04:48:00.162Z,4.63
2019-03-25T04:50:29.553Z,4.37
2019-03-25T04:52:58.930Z,3.20
2019-03-25T04:55:28.325Z,2.43
2019-03-25T04:57:59.295Z,2.37
2019-03-25T05:00:36.035Z,2.73
2019-03-25T05:03:05.555Z,2.77
2019-03-25T05:05:36.220Z,2.60
2019-03-25T05:08:05.936Z,1.70
2019-03-25T05:10:36.897Z,1.80
2019-03-25T05:13:06.659Z,1.17
2019-03-25T05:15:36.116Z,1.60
2019-03-25T05:18:05.648Z,1.73
2019-03-25T05:20:35.143Z,2.50
2019-03-25T05:23:04.746Z,2.53
2019-03-25T05:25:34.607Z,2.70
2019-03-25T05:28:04.295Z,3.13
2019-03-25T05:30:34.331Z,2.37
2019-03-25T05:33:03.808Z,2.77
2019-03-25T05:35:33.396Z,2.63
2019-03-25T05:38:02.786Z,2.93
2019-03-25T05:40:32.164Z,2.70
2019-03-25T05:43:01.600Z,2.23
2019-03-25T05:45:31.179Z,2.27
2019-03-25T05:48:00.574Z,2.40
2019-03-25T05:50:30.868Z,2.30
2019-03-25T05:53:00.344Z,2.77
2019-03-25T05:55:29.935Z,2.93
2019-03-25T05:58:01.063Z,2.93
2019-03-25T06:00:32.176Z,3.93
2019-03-25T06:03:01.770Z,3.10
2019-03-25T06:05:31.222Z,3.10
2019-03-25T06:08:00.628Z,3.97
2019-03-25T06:10:30.075Z,3.57
2019-03-25T06:12:59.557Z,4.00
2019-03-25T06:15:28.920Z,3.63
2019-03-25T06:17:58.388Z,4.50
2019-03-25T06:20:27.950Z,4.10
2019-03-25T06:22:57.506Z,3.93
2019-03-25T06:25:26.899Z,4.27
2019-03-25T06:27:56.303Z,3.90
2019-03-25T06:30:25.801Z,3.43
2019-03-25T06:32:55.304Z,4.70
2019-03-25T06:35:24.819Z,4.37
2019-03-25T06:37:54.237Z,4.03
2019-03-25T06:40:23.628Z,3.00
2019-03-25T06:42:53.129Z,3.30
2019-03-25T06:45:22.576Z,2.70
2019-03-25T06:47:52.007Z,2.10
2019-03-25T06:50:21.372Z,2.27
2019-03-25T06:52:50.844Z,2.20
2019-03-25T06:55:20.278Z,2.93
2019-03-25T06:57:49.679Z,2.50
2019-03-25T07:00:19.583Z,3.73
2019-03-25T07:02:48.977Z,2.63
2019-03-25T07:05:18.554Z,3.00
2019-03-25T07:07:48.420Z,2.50
2019-03-25T07:10:20.935Z,2.17
2019-03-25T07:12:50.459Z,2.37
2019-03-25T07:15:22.894Z,2.87
2019-03-25T07:17:52.357Z,2.80
2019-03-25T07:20:23.483Z,2.63
2019-03-25T07:22:52.882Z,2.53
2019-03-25T07:25:22.427Z,2.93
2019-03-25T07:27:51.898Z,3.27
2019-03-25T07:30:21.509Z,2.50
2019-03-25T07:32:50.910Z,3.90
2019-03-25T07:35:22.371Z,3.50
2019-03-25T07:37:51.375Z,3.03
2019-03-25T07:40:20.770Z,2.97
2019-03-25T07:42:50.360Z,2.63
2019-03-25T07:45:19.844Z,3.60
2019-03-25T07:47:49.256Z,3.30
2019-03-25T07:50:18.797Z,3.50
2019-03-25T07:52:48.270Z,2.90
2019-03-25T07:55:17.735Z,2.80
2019-03-25T07:57:48.496Z,2.50
2019-03-25T08:00:19.214Z,2.47
2019-03-25T08:02:48.673Z,3.10
2019-03-25T08:05:18.228Z,2.37
2019-03-25T08:07:47.717Z,2.60
2019-03-25T08:10:32.203Z,2.70
2019-03-25T08:13:01.804Z,2.67
2019-03-25T08:15:31.339Z,3.47
2019-03-25T08:18:01.230Z,3.17
2019-03-25T08:20:30.763Z,3.37
2019-03-25T08:23:00.234Z,3.30
2019-03-25T08:25:29.786Z,3.33
2019-03-25T08:28:00.489Z,3.13
2019-03-25T08:30:30.135Z,3.00
2019-03-25T08:32:59.779Z,2.57
2019-03-25T08:35:29.295Z,2.50
2019-03-25T08:37:58.896Z,3.10
2019-03-25T08:40:28.321Z,2.77
2019-03-25T08:42:59.252Z,2.37
2019-03-25T08:45:28.621Z,2.40
2019-03-25T08:47:58.151Z,2.60
2019-03-25T08:50:27.515Z,2.70
2019-03-25T08:52:56.921Z,3.13
2019-03-25T08:55:26.351Z,3.13
2019-03-25T08:57:55.826Z,3.00
2019-03-25T09:00:25.241Z,2.00
2019-03-25T09:02:54.796Z,2.40
2019-03-25T09:05:24.274Z,2.03
2019-03-25T09:07:53.674Z,2.47
2019-03-25T09:10:23.142Z,2.80
2019-03-25T09:12:52.689Z,2.43
2019-03-25T09:15:22.111Z,2.50
2019-03-25T09:17:51.653Z,3.23
2019-03-25T09:20:21.171Z,3.40
2019-03-25T09:22:50.703Z,2.60
2019-03-25T09:25:20.267Z,3.30
2019-03-25T09:27:49.715Z,3.20
2019-03-25T09:30:54.311Z,3.63
2019-03-25T09:33:23.778Z,3.80
2019-03-25T09:35:53.429Z,3.07
2019-03-25T09:38:22.983Z,3.70
2019-03-25T09:40:52.501Z,4.13
2019-03-25T09:43:22.105Z,4.20
2019-03-25T09:45:51.536Z,3.53
2019-03-25T09:48:20.929Z,3.87
2019-03-25T09:50:51.962Z,3.47
2019-03-25T09:53:21.414Z,3.63
2019-03-25T09:55:50.811Z,3.00
2019-03-25T09:58:20.329Z,3.47
2019-03-25T10:00:52.024Z,3.87
2019-03-25T10:03:21.063Z,3.37
2019-03-25T10:05:50.516Z,3.83
2019-03-25T10:08:19.886Z,3.43
2019-03-25T10:11:02.154Z,3.53
2019-03-25T10:13:32.313Z,3.47
2019-03-25T10:16:02.050Z,3.83
2019-03-25T10:18:31.444Z,3.50
2019-03-25T10:21:00.900Z,3.30
2019-03-25T10:23:30.402Z,3.63
2019-03-25T10:25:59.795Z,4.10
2019-03-25T10:28:29.226Z,1.87
2019-03-25T10:30:58.625Z,2.23
2019-03-25T10:33:28.042Z,2.30
2019-03-25T10:35:57.570Z,2.37
2019-03-25T10:38:26.935Z,2.70
2019-03-25T10:40:56.384Z,2.87
2019-03-25T10:43:25.807Z,3.03
2019-03-25T10:45:55.290Z,3.67
2019-03-25T10:48:24.780Z,3.80
2019-03-25T10:50:54.397Z,4.60
2019-03-25T10:53:23.757Z,4.43
2019-03-25T10:55:53.279Z,3.70
2019-03-25T10:58:22.715Z,4.10
2019-03-25T11:00:52.298Z,3.43
2019-03-25T11:03:21.651Z,3.27
2019-03-25T11:05:51.188Z,2.60
2019-03-25T11:08:21.078Z,2.90
2019-03-25T11:10:50.617Z,2.50
2019-03-25T11:13:20.047Z,2.90
2019-03-25T11:15:49.589Z,3.13
2019-03-25T11:18:19.118Z,3.03
2019-03-25T11:20:48.583Z,7.10
2019-03-25T11:23:18.050Z,7.73
2019-03-25T11:25:47.513Z,5.50
2019-03-25T11:28:16.991Z,5.10
2019-03-25T11:30:57.382Z,3.07
2019-03-25T11:33:26.938Z,3.13
2019-03-25T11:35:56.468Z,2.90
2019-03-25T11:38:26.950Z,2.60
2019-03-25T11:40:56.523Z,2.57
2019-03-25T11:43:25.984Z,2.83
2019-03-25T11:45:55.549Z,3.30
2019-03-25T11:48:24.938Z,3.63
2019-03-25T11:50:54.500Z,3.30
2019-03-25T11:53:23.965Z,3.43
2019-03-25T11:55:53.504Z,5.37
2019-03-25T11:58:22.977Z,8.50
2019-03-25T12:00:54.172Z,4.13
2019-03-25T12:03:23.640Z,2.97
2019-03-25T12:05:53.181Z,2.60
2019-03-25T12:08:22.879Z,2.83
2019-03-25T12:10:52.427Z,2.77
2019-03-25T12:13:22.042Z,3.13
2019-03-25T12:15:51.513Z,3.60
2019-03-25T12:18:20.905Z,2.63
2019-03-25T12:20:50.313Z,2.30
2019-03-25T12:23:26.229Z,2.40
2019-03-25T12:25:50.878Z,2.00
2019-03-25T12:28:20.838Z,2.57
2019-03-25T12:30:51.482Z,2.30
2019-03-25T12:33:20.924Z,2.07
2019-03-25T12:35:50.434Z,1.90
2019-03-25T12:38:21.492Z,2.60
2019-03-25T12:40:50.924Z,2.30
2019-03-25T12:43:20.392Z,2.50
2019-03-25T12:45:49.867Z,2.60
2019-03-25T12:48:19.924Z,2.93
2019-03-25T12:50:49.413Z,3.13
2019-03-25T12:53:18.819Z,3.70
2019-03-25T12:55:48.422Z,3.07
2019-03-25T12:58:17.826Z,3.57
2019-03-25T13:00:47.891Z,3.53
2019-03-25T13:03:17.827Z,3.80
2019-03-25T13:05:47.394Z,3.63
2019-03-25T13:08:17.385Z,3.37
2019-03-25T13:10:47.064Z,4.33
2019-03-25T13:13:18.027Z,3.60
2019-03-25T13:15:47.583Z,4.10
2019-03-25T13:18:17.054Z,3.43
2019-03-25T13:20:46.521Z,3.30
2019-03-25T13:23:16.078Z,4.33
2019-03-25T13:25:45.676Z,3.30
2019-03-25T13:28:15.075Z,3.70
2019-03-25T13:30:44.478Z,3.63
2019-03-25T13:33:13.936Z,4.30
2019-03-25T13:35:43.331Z,3.90
2019-03-25T13:38:12.684Z,3.93
2019-03-25T13:40:42.139Z,3.67
2019-03-25T13:43:11.579Z,3.40
2019-03-25T13:45:41.058Z,3.10
2019-03-25T13:48:10.502Z,3.30
2019-03-25T13:50:39.909Z,4.07
2019-03-25T13:53:09.334Z,4.20
2019-03-25T13:55:38.730Z,3.93
2019-03-25T13:58:08.086Z,3.93
2019-03-25T14:00:38.626Z,3.97
2019-03-25T14:03:07.979Z,4.30
2019-03-25T14:05:37.512Z,3.43
2019-03-25T14:08:07.013Z,4.17
2019-03-25T14:10:36.482Z,4.83
2019-03-25T14:13:06.039Z,4.10
2019-03-25T14:15:35.583Z,4.50
2019-03-25T14:18:05.319Z,4.67
2019-03-25T14:20:34.914Z,5.23
2019-03-25T14:23:04.439Z,5.07
2019-03-25T14:25:33.903Z,4.83
2019-03-25T14:28:03.736Z,4.87
2019-03-25T14:30:33.239Z,4.47
2019-03-25T14:33:03.430Z,5.57
2019-03-25T14:35:32.971Z,4.37
2019-03-25T14:38:02.436Z,5.53
2019-03-25T14:40:31.987Z,5.00
2019-03-25T14:43:01.468Z,4.00
2019-03-25T14:45:30.927Z,4.53
2019-03-25T14:48:00.499Z,4.47
2019-03-25T14:50:29.905Z,3.80
2019-03-25T14:52:59.357Z,4.43
2019-03-25T14:55:28.761Z,4.20
2019-03-25T14:57:58.319Z,4.67
2019-03-25T15:00:27.882Z,4.23
2019-03-25T15:02:57.345Z,4.47
2019-03-25T15:05:26.884Z,4.13
2019-03-25T15:07:56.451Z,4.07
2019-03-25T15:10:25.910Z,4.03
2019-03-25T15:12:55.356Z,4.93
2019-03-25T15:15:24.812Z,4.53
2019-03-25T15:17:54.213Z,4.40
2019-03-25T15:20:23.833Z,4.53
2019-03-25T15:22:53.427Z,5.37
2019-03-25T15:25:23.879Z,4.80
2019-03-25T15:27:53.407Z,3.50
2019-03-25T15:30:22.964Z,4.47
2019-03-25T15:32:52.570Z,3.77
2019-03-25T15:35:22.119Z,4.33
2019-03-25T15:37:51.531Z,4.13
2019-03-25T15:40:21.055Z,5.27
2019-03-25T15:42:50.560Z,4.10
2019-03-25T15:45:20.031Z,4.10
2019-03-25T15:47:49.558Z,4.27
2019-03-25T15:50:19.495Z,4.87
2019-03-25T15:52:48.947Z,4.20
2019-03-25T15:55:18.547Z,4.67
2019-03-25T15:57:47.978Z,4.20
2019-03-25T16:00:20.485Z,4.53
2019-03-25T16:02:50.055Z,4.20
2019-03-25T16:05:21.100Z,4.23
2019-03-25T16:07:50.603Z,4.70
2019-03-25T16:10:21.736Z,4.63
2019-03-25T16:12:51.252Z,4.90
2019-03-25T16:15:41.654Z,4.30
2019-03-25T16:18:12.726Z,4.47
2019-03-25T16:20:43.587Z,3.83
2019-03-25T16:23:13.235Z,4.27
2019-03-25T16:25:44.336Z,3.90
2019-03-25T16:28:13.691Z,4.20
2019-03-25T16:30:43.226Z,3.87
2019-03-25T16:33:12.623Z,4.13
2019-03-25T16:35:42.074Z,4.10
2019-03-25T16:38:11.435Z,4.80
2019-03-25T16:40:40.907Z,4.43
2019-03-25T16:43:10.325Z,3.50
2019-03-25T16:45:39.715Z,4.43
2019-03-25T16:48:09.071Z,3.93
2019-03-25T16:50:38.584Z,4.60
2019-03-25T16:53:08.163Z,3.87
2019-03-25T16:55:37.702Z,3.40
2019-03-25T16:58:07.274Z,3.93
2019-03-25T17:00:36.876Z,3.50
2019-03-25T17:03:06.417Z,4.43
2019-03-25T17:05:35.948Z,3.63
2019-03-25T17:08:05.581Z,4.33
2019-03-25T17:10:35.194Z,4.00
2019-03-25T17:13:04.695Z,4.57
2019-03-25T17:15:34.159Z,4.83
2019-03-25T17:18:03.508Z,4.50
2019-03-25T17:20:32.979Z,4.33
2019-03-25T17:23:02.340Z,4.30
2019-03-25T17:25:33.367Z,4.63
2019-03-25T17:28:02.805Z,4.30
2019-03-25T17:30:32.377Z,4.67
2019-03-25T17:33:01.780Z,4.83
2019-03-25T17:35:31.445Z,4.33
2019-03-25T17:38:00.845Z,5.00
2019-03-25T17:40:30.359Z,4.50
2019-03-25T17:42:59.855Z,4.60
2019-03-25T17:45:30.812Z,4.57
2019-03-25T17:48:01.988Z,4.13
2019-03-25T17:50:31.535Z,5.03
2019-03-25T17:53:00.990Z,4.13
2019-03-25T17:55:30.452Z,4.60
2019-03-25T17:57:59.974Z,4.63
2019-03-25T18:00:53.991Z,3.90
2019-03-25T18:03:23.479Z,4.03
2019-03-25T18:05:52.927Z,4.90
2019-03-25T18:08:24.018Z,4.53
2019-03-25T18:10:53.751Z,4.47
2019-03-25T18:13:23.216Z,4.40
2019-03-25T18:15:52.592Z,4.97
2019-03-25T18:18:22.135Z,4.33
2019-03-25T18:20:51.548Z,4.90
2019-03-25T18:23:21.050Z,5.40
2019-03-25T18:25:50.605Z,4.73
2019-03-25T18:28:20.068Z,4.53
2019-03-25T18:30:49.544Z,4.67
2019-03-25T18:33:19.028Z,4.60
2019-03-25T18:35:48.483Z,4.63
2019-03-25T18:38:17.955Z,4.83
2019-03-25T18:40:47.343Z,4.30
2019-03-25T18:43:16.806Z,5.47
2019-03-25T18:45:46.301Z,4.87
2019-03-25T18:48:15.812Z,6.37
2019-03-25T18:50:45.293Z,4.97
2019-03-25T18:53:14.914Z,4.63
2019-03-25T18:55:46.000Z,5.30
2019-03-25T18:58:15.744Z,4.73
2019-03-25T19:00:46.785Z,4.87
2019-03-25T19:03:18.359Z,4.93
2019-03-25T19:05:47.452Z,4.93
2019-03-25T19:08:19.732Z,4.10
2019-03-25T19:10:49.227Z,6.10
2019-03-25T19:13:18.644Z,4.87
2019-03-25T19:15:48.191Z,4.97
2019-03-25T19:18:17.655Z,5.43
2019-03-25T19:20:47.180Z,5.40
2019-03-25T19:23:16.754Z,4.53
2019-03-25T19:25:46.156Z,5.83
2019-03-25T19:28:15.595Z,5.10
2019-03-25T19:30:45.102Z,5.23
2019-03-25T19:33:14.521Z,5.17
2019-03-25T19:35:44.455Z,4.63
2019-03-25T19:38:13.954Z,5.60
2019-03-25T19:40:43.430Z,5.63
2019-03-25T19:43:12.868Z,4.67
2019-03-25T19:45:43.893Z,4.43
2019-03-25T19:48:13.350Z,4.00
2019-03-25T19:50:42.779Z,5.03
2019-03-25T19:53:19.120Z,5.57
2019-03-25T19:55:43.514Z,4.70
2019-03-25T19:58:12.941Z,5.20
2019-03-25T20:00:44.080Z,5.30
2019-03-25T20:03:13.579Z,4.77
2019-03-25T20:05:49.614Z,4.80
2019-03-25T20:08:19.307Z,4.20
2019-03-25T20:10:49.367Z,4.90
2019-03-25T20:13:19.208Z,4.07
2019-03-25T20:15:48.663Z,4.47
2019-03-25T20:18:18.127Z,3.43
2019-03-25T20:20:47.780Z,3.80
2019-03-25T20:23:17.327Z,3.53
2019-03-25T20:25:46.854Z,4.20
2019-03-25T20:28:16.379Z,3.70
2019-03-25T20:30:45.919Z,4.07
2019-03-25T20:33:15.411Z,3.17
2019-03-25T20:35:44.968Z,3.30
2019-03-25T20:38:14.577Z,3.80
2019-03-25T20:40:45.663Z,3.00
2019-03-25T20:43:15.881Z,3.13
2019-03-25T20:45:45.391Z,3.57
2019-03-25T20:48:14.887Z,3.20
2019-03-25T20:50:44.485Z,3.70
2019-03-25T20:53:13.981Z,3.37
2019-03-25T20:55:43.502Z,2.87
2019-03-25T20:58:12.859Z,2.77
2019-03-25T21:00:52.620Z,3.30
2019-03-25T21:03:22.376Z,2.93
2019-03-25T21:05:51.993Z,3.30
2019-03-25T21:08:21.779Z,2.90
2019-03-25T21:10:51.326Z,3.17
2019-03-25T21:13:20.840Z,2.80
2019-03-25T21:15:50.445Z,2.87
2019-03-25T21:18:19.963Z,3.07
2019-03-25T21:20:49.391Z,3.00
2019-03-25T21:23:18.981Z,3.00
2019-03-25T21:25:48.460Z,3.43
2019-03-25T21:28:17.993Z,4.73
2019-03-25T21:30:48.482Z,4.03
2019-03-25T21:33:18.327Z,4.53
2019-03-25T21:35:47.737Z,4.63
2019-03-25T21:38:17.272Z,5.47
2019-03-25T21:40:46.869Z,4.67
2019-03-25T21:43:17.904Z,4.07
2019-03-25T21:45:47.397Z,4.30
2019-03-25T21:48:16.821Z,3.53
2019-03-25T21:50:46.267Z,4.43
2019-03-25T21:53:15.919Z,4.60
2019-03-25T21:55:45.432Z,4.30
2019-03-25T21:58:14.936Z,5.00
2019-03-25T22:00:44.536Z,4.30
2019-03-25T22:03:14.022Z,4.13
2019-03-25T22:05:43.447Z,5.60
2019-03-25T22:08:12.855Z,4.60
2019-03-25T22:10:43.129Z,5.43
2019-03-25T22:13:12.933Z,4.53
2019-03-25T22:15:43.820Z,4.40
2019-03-25T22:18:13.286Z,3.80
2019-03-25T22:20:42.706Z,4.93
2019-03-25T22:23:12.147Z,4.53
2019-03-25T22:25:41.719Z,4.83
2019-03-25T22:28:11.283Z,4.53
2019-03-25T22:30:42.675Z,3.80
2019-03-25T22:33:24.905Z,4.63
2019-03-25T22:35:43.358Z,4.93
2019-03-25T22:38:12.933Z,4.23
2019-03-25T22:40:42.487Z,4.57
2019-03-25T22:43:12.007Z,4.60
2019-03-25T22:45:41.398Z,4.70
2019-03-25T22:48:10.899Z,4.53
2019-03-25T22:50:40.354Z,4.67
2019-03-25T22:53:11.291Z,4.20
2019-03-25T22:55:40.834Z,4.63
2019-03-25T22:58:10.228Z,4.63
2019-03-25T23:00:41.334Z,4.83
2019-03-25T23:03:10.833Z,4.87
2019-03-25T23:05:40.484Z,4.67
2019-03-25T23:08:10.048Z,4.57
2019-03-25T23:10:39.637Z,4.47
2019-03-25T23:13:09.074Z,4.90
2019-03-25T23:15:38.544Z,4.80
2019-03-25T23:18:07.912Z,5.20
2019-03-25T23:20:37.389Z,4.73
2019-03-25T23:23:07.056Z,5.00
2019-03-25T23:25:36.500Z,4.67
2019-03-25T23:28:05.966Z,4.90
2019-03-25T23:30:35.515Z,4.80
2019-03-25T23:33:05.380Z,4.90
2019-03-25T23:35:34.783Z,4.37
2019-03-25T23:38:04.335Z,4.50
2019-03-25T23:40:33.726Z,4.83
2019-03-25T23:43:04.964Z,5.30
2019-03-25T23:45:34.483Z,4.40
2019-03-25T23:48:04.492Z,4.43
2019-03-25T23:50:34.055Z,5.10
2019-03-25T23:53:03.461Z,4.40
2019-03-25T23:55:32.898Z,4.33
2019-03-25T23:58:02.346Z,4.07
